Time;durP1;ratioP1;P1;durP2;ratioP2;P2;SDS_P1;SDS_P2;PMS_P1;PMS_P2;Temp;Humidity;BMP_temperature;BMP_pressure;BME280_temperature;BME280_humidity;BME280_pressure;Samples;Min_cycle;Max_cycle;Signal;HPM_P1;HPM_P2
2023/03/17 00:00:53;;;;;;;2.88;1.98;;;5.80;99.90;;;;;;7402479;19;19914;-77
2023/03/17 00:03:25;;;;;;;3.70;1.80;;;6.50;99.90;;;;;;7402686;19;19910;-77
2023/03/17 00:06:00;;;;;;;2.67;1.90;;;5.80;99.90;;;;;;7402500;19;19966;-77
2023/03/17 00:08:30;;;;;;;4.75;2.25;;;5.80;99.90;;;;;;7404528;19;20337;-78
2023/03/17 00:10:59;;;;;;;3.53;2.30;;;6.80;99.90;;;;;;7402912;19;19925;-77
2023/03/17 00:13:29;;;;;;;5.05;2.30;;;5.70;99.90;;;;;;7404122;19;19923;-77
2023/03/17 00:16:17;;;;;;;3.28;1.70;;;5.70;99.90;;;;;;7402187;19;20352;-77
2023/03/17 00:19:01;;;;;;;2.97;1.98;;;6.70;99.90;;;;;;7402566;19;19955;-77
2023/03/17 00:21:34;;;;;;;3.72;1.85;;;5.90;99.90;;;;;;7400737;19;20503;-77
2023/03/17 00:24:03;;;;;;;3.95;1.90;;;5.90;99.90;;;;;;7400075;19;19946;-77
2023/03/17 00:26:33;;;;;;;6.93;2.20;;;5.90;99.90;;;;;;7404989;19;19984;-76
2023/03/17 00:29:02;;;;;;;3.72;2.40;;;5.90;99.90;;;;;;7401768;19;20011;-77
2023/03/17 00:31:36;;;;;;;2.35;1.92;;;6.70;99.90;;;;;;7402633;19;19943;-76
2023/03/17 00:34:06;;;;;;;5.78;2.40;;;5.80;99.90;;;;;;7404337;19;19922;-77
2023/03/17 00:36:38;;;;;;;5.10;2.58;;;7.00;99.90;;;;;;7402945;19;19919;-76
2023/03/17 00:39:13;;;;;;;4.05;1.92;;;5.90;99.90;;;;;;7403004;19;20061;-77
2023/03/17 00:41:43;;;;;;;3.55;1.75;;;5.90;99.90;;;;;;7402523;19;20345;-77
2023/03/17 00:44:12;;;;;;;2.60;1.98;;;6.20;99.90;;;;;;7403390;19;20348;-77
2023/03/17 00:46:41;;;;;;;5.75;2.75;;;6.00;99.90;;;;;;7399788;19;19918;-77
2023/03/17 00:49:18;;;;;;;3.78;2.33;;;6.30;99.90;;;;;;7403262;19;19919;-77
2023/03/17 00:51:50;;;;;;;3.78;2.15;;;6.40;99.90;;;;;;7402101;19;19936;-77
2023/03/17 00:54:21;;;;;;;3.50;2.00;;;6.00;99.90;;;;;;7400677;19;19970;-77
2023/03/17 00:56:52;;;;;;;3.53;2.13;;;6.00;99.90;;;;;;7402850;19;20241;-77
2023/03/17 00:59:26;;;;;;;4.82;2.47;;;6.00;99.90;;;;;;7402856;19;19929;-77
2023/03/17 01:01:56;;;;;;;2.63;2.00;;;6.80;99.90;;;;;;7403664;19;19932;-76
2023/03/17 01:04:25;;;;;;;4.50;2.40;;;5.90;99.90;;;;;;7404781;19;19926;-77
2023/03/17 01:06:57;;;;;;;3.60;2.63;;;6.00;99.90;;;;;;7401394;19;19979;-77
2023/03/17 01:09:29;;;;;;;4.45;2.13;;;6.10;99.90;;;;;;7399630;19;19990;-77
2023/03/17 01:11:59;;;;;;;5.55;2.72;;;5.90;99.90;;;;;;7399590;19;19999;-76
2023/03/17 01:14:28;;;;;;;3.70;2.30;;;6.10;99.90;;;;;;7399858;19;20395;-77
2023/03/17 01:16:58;;;;;;;4.75;2.38;;;6.40;99.90;;;;;;7401040;19;19982;-77
2023/03/17 01:19:27;;;;;;;4.47;2.63;;;6.20;99.90;;;;;;7398803;19;20291;-77
2023/03/17 01:21:59;;;;;;;3.88;2.63;;;6.00;99.90;;;;;;7399493;19;19937;-77
2023/03/17 01:24:28;;;;;;;6.00;2.45;;;5.90;99.90;;;;;;7400816;19;19970;-77
2023/03/17 01:26:57;;;;;;;3.58;2.50;;;6.20;99.90;;;;;;7399918;19;19922;-76
2023/03/17 01:29:26;;;;;;;3.75;2.78;;;6.00;99.90;;;;;;7403645;19;19946;-77
2023/03/17 01:31:54;;;;;;;5.32;2.83;;;6.00;99.90;;;;;;7400134;19;19919;-77
2023/03/17 01:34:24;;;;;;;4.95;2.63;;;5.90;99.90;;;;;;7400471;19;19925;-77
2023/03/17 01:36:53;;;;;;;3.63;2.47;;;6.10;99.90;;;;;;7399981;19;19926;-77
2023/03/17 01:39:26;;;;;;;4.20;2.60;;;6.00;99.90;;;;;;7399422;19;19915;-77
2023/03/17 01:41:56;;;;;;;4.45;2.88;;;5.90;99.90;;;;;;7400817;19;19930;-77
2023/03/17 01:44:26;;;;;;;5.03;2.78;;;7.20;99.90;;;;;;7400271;19;19954;-77
2023/03/17 01:46:56;;;;;;;4.97;2.35;;;5.90;99.90;;;;;;7398640;19;19919;-77
2023/03/17 01:49:30;;;;;;;3.55;2.55;;;6.00;99.90;;;;;;7402943;19;19919;-77
2023/03/17 01:52:06;;;;;;;3.63;2.38;;;5.90;99.90;;;;;;7401866;19;19926;-77
2023/03/17 01:54:44;;;;;;;3.97;2.30;;;6.60;99.90;;;;;;7398919;19;20009;-77
2023/03/17 01:57:18;;;;;;;4.22;2.95;;;5.90;99.90;;;;;;7399041;19;20301;-77
2023/03/17 01:59:52;;;;;;;4.05;2.83;;;5.90;99.90;;;;;;7405747;19;19966;-77
2023/03/17 02:02:27;;;;;;;5.32;2.88;;;6.50;99.90;;;;;;7407848;19;19922;-77
2023/03/17 02:04:57;;;;;;;4.13;2.60;;;5.70;99.90;;;;;;7406064;19;19943;-77
2023/03/17 02:07:28;;;;;;;4.07;2.40;;;5.70;99.90;;;;;;7405401;19;20381;-77
2023/03/17 02:10:00;;;;;;;8.18;3.63;;;5.90;99.90;;;;;;7407343;19;19926;-77
2023/03/17 02:12:31;;;;;;;5.25;2.80;;;6.00;99.90;;;;;;7407830;19;19937;-77
2023/03/17 02:15:00;;;;;;;3.97;2.58;;;5.90;99.90;;;;;;7404028;19;19922;-77
2023/03/17 02:17:30;;;;;;;5.75;3.05;;;5.70;99.90;;;;;;7404442;19;19986;-77
2023/03/17 02:20:16;;;;;;;5.70;2.75;;;5.90;99.90;;;;;;7404965;19;19927;-78
2023/03/17 02:22:51;;;;;;;5.65;2.90;;;6.00;99.90;;;;;;7408722;19;20308;-77
2023/03/17 02:25:21;;;;;;;3.95;3.00;;;6.40;99.90;;;;;;7405688;19;19932;-77
2023/03/17 02:27:55;;;;;;;4.10;2.70;;;5.80;99.90;;;;;;7406246;19;19922;-77
2023/03/17 02:30:25;;;;;;;4.40;2.78;;;6.00;99.90;;;;;;7404899;19;20315;-77
2023/03/17 02:32:56;;;;;;;5.32;3.30;;;5.90;99.90;;;;;;7407710;19;19943;-77
2023/03/17 02:35:25;;;;;;;5.80;2.75;;;5.80;99.90;;;;;;7404636;19;20253;-77
2023/03/17 02:37:57;;;;;;;5.43;2.60;;;6.00;99.90;;;;;;7406714;19;19919;-77
2023/03/17 02:40:27;;;;;;;4.82;2.90;;;5.90;99.90;;;;;;7405056;19;19936;-77
2023/03/17 02:42:56;;;;;;;3.63;2.60;;;5.90;99.90;;;;;;7407739;19;19947;-77
2023/03/17 02:45:26;;;;;;;4.88;2.88;;;6.70;99.90;;;;;;7404651;19;19927;-77
2023/03/17 02:47:56;;;;;;;5.55;3.33;;;6.70;99.90;;;;;;7405717;19;20305;-77
2023/03/17 02:50:28;;;;;;;3.35;2.42;;;5.70;99.90;;;;;;7404837;19;19992;-77
2023/03/17 02:53:00;;;;;;;4.60;2.53;;;5.60;99.90;;;;;;7408018;19;19933;-77
2023/03/17 02:55:29;;;;;;;4.47;2.97;;;5.60;99.90;;;;;;7402655;19;19991;-76
2023/03/17 02:57:58;;;;;;;5.05;3.00;;;5.60;99.90;;;;;;7404571;19;19982;-77
2023/03/17 03:00:27;;;;;;;4.60;2.65;;;5.50;99.90;;;;;;7404748;19;19928;-77
2023/03/17 03:02:56;;;;;;;4.50;2.72;;;5.50;99.90;;;;;;7406267;19;19923;-77
2023/03/17 03:05:26;;;;;;;3.97;2.90;;;5.90;99.90;;;;;;7404020;19;19911;-77
2023/03/17 03:07:55;;;;;;;4.25;2.78;;;5.50;99.90;;;;;;7404506;19;19915;-77
2023/03/17 03:10:26;;;;;;;5.38;2.60;;;6.30;99.90;;;;;;7403227;19;20087;-77
2023/03/17 03:12:55;;;;;;;4.00;2.67;;;5.40;99.90;;;;;;7407306;19;20314;-77
2023/03/17 03:15:24;;;;;;;4.95;3.13;;;6.40;99.90;;;;;;7402736;19;19933;-77
2023/03/17 03:17:53;;;;;;;4.63;2.72;;;5.60;99.90;;;;;;7404092;19;20404;-76
2023/03/17 03:20:23;;;;;;;3.78;2.45;;;5.70;99.90;;;;;;7406140;19;20340;-77
2023/03/17 03:22:51;;;;;;;4.22;2.60;;;5.40;99.90;;;;;;7405716;19;19918;-77
2023/03/17 03:25:20;;;;;;;4.25;2.45;;;6.00;99.90;;;;;;7405178;19;19923;-77
2023/03/17 03:27:52;;;;;;;6.35;2.83;;;5.40;99.90;;;;;;7405448;19;19915;-77
2023/03/17 03:30:21;;;;;;;8.55;2.63;;;5.40;99.90;;;;;;7407566;19;19951;-77
2023/03/17 03:32:50;;;;;;;3.00;2.33;;;5.40;99.90;;;;;;7406973;19;20018;-77
2023/03/17 03:35:20;;;;;;;6.90;2.80;;;5.30;99.90;;;;;;7403975;19;20443;-77
2023/03/17 03:37:50;;;;;;;4.50;3.00;;;6.60;99.90;;;;;;7406965;19;19947;-77
2023/03/17 03:40:19;;;;;;;5.68;3.13;;;5.40;99.90;;;;;;7403262;19;19939;-77
2023/03/17 03:42:48;;;;;;;4.00;2.70;;;5.40;99.90;;;;;;7404946;19;19992;-77
2023/03/17 03:45:20;;;;;;;4.03;2.67;;;6.50;99.90;;;;;;7402364;19;19915;-76
2023/03/17 03:47:49;;;;;;;4.07;2.60;;;5.30;99.90;;;;;;7404227;19;20352;-77
2023/03/17 03:50:19;;;;;;;4.65;2.95;;;5.40;99.90;;;;;;7403010;19;19919;-77
2023/03/17 03:52:48;;;;;;;4.60;2.40;;;5.30;99.90;;;;;;7405069;19;19935;-77
2023/03/17 03:55:17;;;;;;;5.40;2.72;;;5.30;99.90;;;;;;7402593;19;19918;-77
2023/03/17 03:57:46;;;;;;;4.25;2.55;;;6.60;99.90;;;;;;7401439;19;19918;-76
2023/03/17 04:00:19;;;;;;;4.32;2.40;;;5.50;99.90;;;;;;7405274;19;20581;-77
2023/03/17 04:02:48;;;;;;;4.18;2.90;;;5.30;99.90;;;;;;7403261;19;19915;-77
2023/03/17 04:05:18;;;;;;;3.72;2.50;;;5.60;99.90;;;;;;7405368;19;20254;-77
2023/03/17 04:07:48;;;;;;;5.10;2.85;;;5.40;99.90;;;;;;7406049;19;20002;-77
2023/03/17 04:10:18;;;;;;;4.70;2.33;;;5.80;99.90;;;;;;7403913;19;19918;-77
2023/03/17 04:12:47;;;;;;;4.63;2.60;;;5.40;99.90;;;;;;7404362;19;19929;-77
2023/03/17 04:15:21;;;;;;;3.22;2.40;;;5.60;99.90;;;;;;7401875;19;19923;-76
2023/03/17 04:17:50;;;;;;;4.07;2.83;;;5.50;99.90;;;;;;7400417;19;19945;-77
2023/03/17 04:20:20;;;;;;;5.45;2.80;;;6.20;99.90;;;;;;7400444;19;19911;-77
2023/03/17 04:22:49;;;;;;;3.88;2.40;;;5.40;99.90;;;;;;7403668;19;19938;-77
2023/03/17 04:25:19;;;;;;;3.35;2.38;;;6.30;99.90;;;;;;7401940;19;19919;-77
2023/03/17 04:27:48;;;;;;;3.90;2.47;;;6.10;99.90;;;;;;7401005;19;19917;-77
2023/03/17 04:30:19;;;;;;;4.63;2.95;;;5.30;99.90;;;;;;7402420;19;20340;-77
2023/03/17 04:32:48;;;;;;;4.38;2.42;;;5.30;99.90;;;;;;7402637;19;19947;-76
2023/03/17 04:35:20;;;;;;;4.50;3.03;;;5.30;99.90;;;;;;7402417;19;19926;-77
2023/03/17 04:37:50;;;;;;;3.45;2.40;;;5.30;99.90;;;;;;7402014;19;19914;-77
2023/03/17 04:40:19;;;;;;;4.35;2.17;;;5.30;99.90;;;;;;7401788;19;20336;-76
2023/03/17 04:42:48;;;;;;;4.15;2.55;;;5.30;99.90;;;;;;7404137;19;19926;-77
2023/03/17 04:45:20;;;;;;;6.15;2.80;;;5.30;99.90;;;;;;7400730;19;19910;-77
2023/03/17 04:47:49;;;;;;;4.25;2.35;;;5.40;99.90;;;;;;7400494;19;19947;-77
2023/03/17 04:50:19;;;;;;;5.53;3.70;;;6.40;99.90;;;;;;7403076;19;19933;-77
2023/03/17 04:52:49;;;;;;;6.22;2.33;;;5.30;99.90;;;;;;7401323;19;19947;-77
2023/03/17 04:55:18;;;;;;;3.55;1.98;;;5.30;99.90;;;;;;7404476;19;19915;-77
2023/03/17 04:57:47;;;;;;;5.22;2.42;;;5.50;99.90;;;;;;7404640;19;19970;-77
2023/03/17 05:00:20;;;;;;;3.60;2.42;;;6.20;99.90;;;;;;7404713;19;19923;-77
2023/03/17 05:02:51;;;;;;;3.35;2.05;;;5.20;99.90;;;;;;7400656;19;19911;-77
2023/03/17 05:05:20;;;;;;;5.82;2.47;;;5.50;99.90;;;;;;7402903;19;19946;-77
2023/03/17 05:07:49;;;;;;;5.00;2.33;;;6.10;99.90;;;;;;7404714;19;19937;-76
2023/03/17 05:10:18;;;;;;;3.72;2.20;;;6.30;99.90;;;;;;7400649;19;20414;-77
2023/03/17 05:12:47;;;;;;;3.60;2.55;;;6.30;99.90;;;;;;7400513;19;19935;-76
2023/03/17 05:15:17;;;;;;;4.88;2.40;;;5.10;99.90;;;;;;7399723;19;19911;-77
2023/03/17 05:17:46;;;;;;;5.97;2.53;;;4.50;99.90;;;;;;7400486;19;19923;-77
2023/03/17 05:20:18;;;;;;;5.35;2.45;;;5.20;99.90;;;;;;7399994;19;19947;-77
2023/03/17 05:22:48;;;;;;;3.40;2.38;;;5.20;99.90;;;;;;7400441;19;19922;-77
2023/03/17 05:25:20;;;;;;;4.63;2.17;;;5.60;99.90;;;;;;7403954;19;19919;-77
2023/03/17 05:27:50;;;;;;;4.32;2.50;;;5.40;99.90;;;;;;7400614;19;19922;-77
2023/03/17 05:30:19;;;;;;;4.80;2.47;;;5.50;99.90;;;;;;7403820;19;19915;-77
2023/03/17 05:33:08;;;;;;;;;;;5.20;99.90;;;;;;7412964;19;20312;-77
2023/03/17 05:36:00;;;;;;;5.47;2.38;;;5.20;99.90;;;;;;7411681;19;19915;-77
2023/03/17 05:38:49;;;;;;;4.32;2.42;;;5.30;99.90;;;;;;7412315;19;19911;-77
2023/03/17 05:41:38;;;;;;;3.75;2.15;;;5.60;99.90;;;;;;7416530;19;19922;-77
2023/03/17 05:44:27;;;;;;;3.08;2.30;;;6.00;99.90;;;;;;7412043;19;19922;-77
2023/03/17 05:46:58;;;;;;;4.43;2.30;;;5.50;99.90;;;;;;7413722;19;19921;-76
2023/03/17 05:49:27;;;;;;;4.03;2.00;;;5.50;99.90;;;;;;7412711;19;19986;-77
2023/03/17 05:51:59;;;;;;;3.95;2.00;;;5.20;99.90;;;;;;7413685;19;19925;-77
2023/03/17 05:54:28;;;;;;;2.95;1.88;;;4.80;99.90;;;;;;7413730;19;19942;-77
2023/03/17 05:56:59;;;;;;;5.30;2.10;;;6.10;99.90;;;;;;7412801;19;19919;-77
2023/03/17 05:59:28;;;;;;;4.50;2.47;;;5.90;99.90;;;;;;7417835;19;19922;-77
2023/03/17 06:01:57;;;;;;;4.20;2.17;;;5.40;99.90;;;;;;7416654;19;20713;-76
2023/03/17 06:04:26;;;;;;;4.30;2.38;;;5.50;99.90;;;;;;7413552;19;19929;-78
2023/03/17 06:06:58;;;;;;;3.92;2.47;;;5.50;99.90;;;;;;7413366;19;19918;-77
2023/03/17 06:09:27;;;;;;;4.70;2.15;;;5.60;99.90;;;;;;7417400;19;19945;-77
2023/03/17 06:11:56;;;;;;;2.40;2.00;;;5.80;99.90;;;;;;7414543;19;20357;-77
2023/03/17 06:14:45;;;;;;;2.92;1.90;;;5.80;99.90;;;;;;7411145;19;19927;-77
2023/03/17 06:17:34;;;;;;;3.80;2.17;;;6.70;99.90;;;;;;7410657;19;19923;-77
2023/03/17 06:20:23;;;;;;;3.05;1.90;;;5.90;99.90;;;;;;7411689;19;19922;-77
2023/03/17 06:22:54;;;;;;;3.03;1.80;;;6.30;99.90;;;;;;7414512;19;19922;-77
2023/03/17 06:25:23;;;;;;;6.40;3.00;;;6.00;99.90;;;;;;7411810;19;19918;-77
2023/03/17 06:27:54;;;;;;;4.15;2.03;;;6.00;99.90;;;;;;7414165;19;19922;-76
2023/03/17 06:30:24;;;;;;;4.22;2.17;;;6.10;99.90;;;;;;7413538;19;19922;-77
2023/03/17 06:32:53;;;;;;;3.38;1.85;;;5.90;99.90;;;;;;7412417;19;19950;-76
2023/03/17 06:35:22;;;;;;;5.35;2.53;;;6.00;99.90;;;;;;7413214;19;19939;-77
2023/03/17 06:37:53;;;;;;;3.13;1.80;;;5.90;99.90;;;;;;7412816;19;19919;-77
2023/03/17 06:40:23;;;;;;;2.40;1.75;;;6.10;99.90;;;;;;7412105;19;20305;-76
2023/03/17 06:42:52;;;;;;;3.90;1.83;;;6.10;99.90;;;;;;7410804;19;19934;-77
2023/03/17 06:45:20;;;;;;;2.40;1.65;;;6.10;99.90;;;;;;7407052;19;19945;-77
2023/03/17 06:47:50;;;;;;;2.60;1.60;;;6.30;99.90;;;;;;7404711;19;19923;-77
2023/03/17 06:50:19;;;;;;;2.13;1.73;;;6.20;99.90;;;;;;7402070;19;19911;-76
2023/03/17 06:52:48;;;;;;;3.88;1.98;;;6.20;99.90;;;;;;7406474;19;19926;-77
2023/03/17 06:55:20;;;;;;;3.22;2.30;;;6.10;99.90;;;;;;7405593;19;19925;-77
2023/03/17 06:57:49;;;;;;;3.67;2.17;;;6.30;99.90;;;;;;7402896;19;19926;-78
2023/03/17 07:00:19;;;;;;;5.53;2.33;;;6.30;99.90;;;;;;7407185;19;19926;-79
2023/03/17 07:02:49;;;;;;;4.07;2.20;;;6.30;99.90;;;;;;7407930;19;20388;-73
2023/03/17 07:05:18;;;;;;;3.50;1.98;;;6.50;99.90;;;;;;7407462;19;19942;-73
2023/03/17 07:07:48;;;;;;;3.08;1.85;;;6.40;99.90;;;;;;7406865;19;19931;-74
2023/03/17 07:10:21;;;;;;;5.18;2.25;;;6.40;99.90;;;;;;7404077;19;19936;-74
2023/03/17 07:12:50;;;;;;;7.68;2.38;;;6.60;99.90;;;;;;7403745;19;20400;-74
2023/03/17 07:15:20;;;;;;;2.67;1.88;;;6.50;99.90;;;;;;7407764;19;20268;-73
2023/03/17 07:17:49;;;;;;;2.75;1.88;;;6.70;99.90;;;;;;7401320;19;19918;-74
2023/03/17 07:20:19;;;;;;;2.40;1.92;;;6.60;99.90;;;;;;7403785;19;19925;-79
2023/03/17 07:22:48;;;;;;;2.78;1.80;;;6.60;99.90;;;;;;7406637;19;19923;-78
2023/03/17 07:25:21;;;;;;;3.92;1.95;;;6.70;99.90;;;;;;7403983;19;19922;-79
2023/03/17 07:27:50;;;;;;;3.15;2.20;;;6.70;99.90;;;;;;7404116;19;20260;-78
2023/03/17 07:30:20;;;;;;;3.90;1.73;;;6.60;99.90;;;;;;7405189;19;19929;-78
2023/03/17 07:32:50;;;;;;;2.92;1.88;;;6.70;99.90;;;;;;7403118;19;19966;-79
2023/03/17 07:35:19;;;;;;;3.83;1.73;;;6.80;99.90;;;;;;7404974;19;19915;-78
2023/03/17 07:37:48;;;;;;;4.20;1.90;;;6.80;99.90;;;;;;7404817;19;19987;-78
2023/03/17 07:40:20;;;;;;;4.78;1.70;;;7.80;99.90;;;;;;7402794;19;19919;-78
2023/03/17 07:42:49;;;;;;;3.05;1.75;;;7.00;99.90;;;;;;7402669;19;19922;-78
2023/03/17 07:45:18;;;;;;;4.63;2.00;;;7.00;99.90;;;;;;7407622;19;19926;-78
2023/03/17 07:47:47;;;;;;;4.68;2.10;;;7.10;99.90;;;;;;7403132;19;19922;-78
2023/03/17 07:50:17;;;;;;;4.63;2.17;;;7.30;99.90;;;;;;7402572;19;19915;-78
2023/03/17 07:52:46;;;;;;;3.20;1.90;;;7.20;99.90;;;;;;7403643;19;19927;-79
2023/03/17 07:55:15;;;;;;;2.90;1.90;;;7.20;99.90;;;;;;7400840;19;19947;-78
2023/03/17 07:57:47;;;;;;;4.55;1.90;;;7.20;99.90;;;;;;7404598;19;19917;-78
2023/03/17 08:00:18;;;;;;;3.80;2.05;;;7.10;99.90;;;;;;7403357;19;19970;-79
2023/03/17 08:02:47;;;;;;;5.53;1.70;;;7.20;99.90;;;;;;7406320;19;20377;-79
2023/03/17 08:05:16;;;;;;;4.45;2.10;;;7.30;99.90;;;;;;7402835;19;20008;-79
2023/03/17 08:07:45;;;;;;;3.92;2.25;;;7.30;99.90;;;;;;7403051;19;20345;-79
2023/03/17 08:10:15;;;;;;;3.70;2.08;;;7.50;99.90;;;;;;7402593;19;19947;-78
2023/03/17 08:12:50;;;;;;;2.92;1.98;;;7.50;99.90;;;;;;7403569;19;19922;-78
2023/03/17 08:15:20;;;;;;;2.72;1.90;;;7.60;99.90;;;;;;7406211;19;19949;-78
2023/03/17 08:17:49;;;;;;;3.42;2.00;;;7.60;99.90;;;;;;7400223;19;19923;-79
2023/03/17 08:20:19;;;;;;;2.92;1.90;;;8.00;99.90;;;;;;7401634;19;19915;-79
2023/03/17 08:22:48;;;;;;;3.15;2.00;;;7.80;99.90;;;;;;7403569;19;19923;-79
2023/03/17 08:25:17;;;;;;;5.03;1.77;;;7.90;99.90;;;;;;7401925;19;19918;-79
2023/03/17 08:27:48;;;;;;;5.85;2.22;;;8.00;99.90;;;;;;7404112;19;20336;-79
2023/03/17 08:30:19;;;;;;;3.78;1.88;;;8.00;99.90;;;;;;7402923;19;19918;-80
2023/03/17 08:32:48;;;;;;;3.83;1.88;;;8.10;99.90;;;;;;7402247;19;20257;-79
2023/03/17 08:35:19;;;;;;;7.32;1.73;;;7.90;99.90;;;;;;7401508;19;19919;-79
2023/03/17 08:37:49;;;;;;;3.78;1.77;;;8.20;99.90;;;;;;7402136;19;19922;-79
2023/03/17 08:40:19;;;;;;;3.50;1.80;;;8.30;99.90;;;;;;7401577;19;19949;-78
2023/03/17 08:42:51;;;;;;;2.80;1.70;;;8.40;99.90;;;;;;7401589;19;19978;-79
2023/03/17 08:45:21;;;;;;;4.70;1.92;;;8.50;99.90;;;;;;7401353;19;19919;-79
2023/03/17 08:47:50;;;;;;;4.97;2.30;;;8.80;99.90;;;;;;7401157;19;19939;-79
2023/03/17 08:50:21;;;;;;;4.05;2.28;;;8.80;99.90;;;;;;7401217;19;20337;-79
2023/03/17 08:52:50;;;;;;;4.18;1.88;;;8.80;99.90;;;;;;7404783;19;19935;-79
2023/03/17 08:55:20;;;;;;;2.95;1.58;;;9.00;99.90;;;;;;7402496;19;19922;-77
2023/03/17 08:57:53;;;;;;;2.90;1.80;;;9.10;99.90;;;;;;7403628;19;19915;-80
2023/03/17 09:00:23;;;;;;;3.47;2.08;;;9.00;99.90;;;;;;7401749;19;19918;-80
2023/03/17 09:02:52;;;;;;;4.53;1.80;;;9.00;99.90;;;;;;7403120;19;19922;-79
2023/03/17 09:05:21;;;;;;;4.07;1.95;;;9.20;99.90;;;;;;7399033;19;19930;-79
2023/03/17 09:07:50;;;;;;;3.95;1.67;;;9.30;99.90;;;;;;7399203;19;20288;-80
2023/03/17 09:10:21;;;;;;;3.55;2.05;;;9.30;99.90;;;;;;7400873;19;19914;-79
2023/03/17 09:12:53;;;;;;;4.93;2.30;;;9.30;99.90;;;;;;7403137;19;19961;-80
2023/03/17 09:15:22;;;;;;;5.40;3.45;;;9.30;99.90;;;;;;7399874;19;20320;-79
2023/03/17 09:17:51;;;;;;;3.72;1.92;;;9.30;99.90;;;;;;7399130;19;20337;-79
2023/03/17 09:20:21;;;;;;;3.45;2.08;;;9.50;99.90;;;;;;7399886;19;20259;-79
2023/03/17 09:22:50;;;;;;;5.45;2.17;;;9.50;99.90;;;;;;7403016;19;19918;-79
2023/03/17 09:25:19;;;;;;;3.15;2.00;;;9.50;99.90;;;;;;7399924;19;20407;-79
2023/03/17 09:27:48;;;;;;;3.33;1.85;;;9.50;99.90;;;;;;7399830;19;19918;-80
2023/03/17 09:30:20;;;;;;;11.30;5.80;;;9.80;99.90;;;;;;7399432;19;19921;-80
2023/03/17 09:32:49;;;;;;;5.78;2.40;;;9.80;99.90;;;;;;7399848;19;19915;-79
2023/03/17 09:35:19;;;;;;;3.20;2.58;;;9.90;99.90;;;;;;7399747;19;19928;-79
2023/03/17 09:37:49;;;;;;;4.07;2.15;;;9.90;99.90;;;;;;7401352;19;19922;-79
2023/03/17 09:40:23;;;;;;;6.85;2.20;;;9.90;99.90;;;;;;7403060;19;20305;-79
2023/03/17 09:43:03;;;;;;;3.70;2.08;;;9.90;99.90;;;;;;7399158;19;19918;-79
2023/03/17 09:45:38;;;;;;;4.35;2.65;;;9.90;99.90;;;;;;7399210;19;19918;-79
2023/03/17 09:48:45;;;;;;;4.53;2.25;;;10.00;99.90;;;;;;7399934;19;19918;-79
2023/03/17 09:51:18;;;;;;;4.47;2.40;;;10.00;99.90;;;;;;7399552;19;20347;-79
2023/03/17 09:53:53;;;;;;;3.47;2.17;;;10.20;99.90;;;;;;7398049;19;19922;-79
2023/03/17 09:56:22;;;;;;;3.60;1.80;;;10.30;99.90;;;;;;7400111;19;19925;-79
2023/03/17 09:58:55;;;;;;;2.83;2.00;;;10.30;99.90;;;;;;7398048;19;20248;-79
2023/03/17 10:01:27;;;;;;;4.45;2.33;;;10.40;99.90;;;;;;7398923;19;20601;-79
2023/03/17 10:03:56;;;;;;;3.67;2.65;;;10.40;99.90;;;;;;7398928;19;19930;-79
2023/03/17 10:06:43;;;;;;;3.92;2.05;;;10.50;99.90;;;;;;7398435;19;19937;-79
2023/03/17 10:09:25;;;;;;;5.22;2.35;;;10.60;99.90;;;;;;7399255;19;19922;-79
2023/03/17 10:12:05;;;;;;;3.13;2.17;;;10.70;99.90;;;;;;7401765;19;19986;-79
2023/03/17 10:14:42;;;;;;;8.38;2.35;;;10.80;99.90;;;;;;7398119;19;19923;-79
2023/03/17 10:17:17;;;;;;;;;;;10.80;99.90;;;;;;7399844;19;19967;-80
2023/03/17 10:19:53;;;;;;;4.72;2.53;;;10.80;99.90;;;;;;7399563;19;19923;-79
2023/03/17 10:22:28;;;;;;;4.57;2.28;;;10.90;99.90;;;;;;7405306;19;19918;-79
2023/03/17 10:25:03;;;;;;;6.47;2.70;;;10.90;99.90;;;;;;7407593;19;19922;-79
2023/03/17 10:27:37;;;;;;;3.20;2.08;;;11.10;99.90;;;;;;7404914;19;19938;-79
2023/03/17 10:30:08;;;;;;;3.97;2.17;;;11.00;99.90;;;;;;7405026;19;19926;-80
2023/03/17 10:32:42;;;;;;;4.82;2.50;;;11.00;99.90;;;;;;7404408;19;20279;-80
2023/03/17 10:35:13;;;;;;;4.22;2.08;;;11.10;99.90;;;;;;7401745;19;19942;-79
2023/03/17 10:37:42;;;;;;;4.60;2.22;;;11.20;99.90;;;;;;7404124;19;19943;-79
2023/03/17 10:40:24;;;;;;;6.15;2.42;;;11.40;99.90;;;;;;7405052;19;19922;-79
2023/03/17 10:42:57;;;;;;;4.38;2.25;;;11.30;99.90;;;;;;7404341;19;19964;-79
2023/03/17 10:45:30;;;;;;;5.57;2.30;;;11.30;99.90;;;;;;7402959;19;19918;-80
2023/03/17 10:48:03;;;;;;;5.53;3.00;;;11.40;99.90;;;;;;7404254;19;19926;-81
2023/03/17 10:50:33;;;;;;;5.25;2.30;;;11.50;99.90;;;;;;7404099;19;19915;-80
2023/03/17 10:53:07;;;;;;;6.00;2.40;;;11.60;99.90;;;;;;7405210;19;19919;-80
2023/03/17 10:55:43;;;;;;;4.05;2.53;;;11.70;99.90;;;;;;7406609;19;19923;-80
2023/03/17 10:58:18;;;;;;;4.28;2.28;;;11.90;99.90;;;;;;7402281;19;19918;-80
2023/03/17 11:00:59;;;;;;;4.63;2.67;;;12.00;99.90;;;;;;7404602;19;20326;-80
2023/03/17 11:03:33;;;;;;;3.88;2.40;;;12.10;99.90;;;;;;7403235;19;19915;-80
2023/03/17 11:06:05;;;;;;;5.88;2.65;;;12.20;99.90;;;;;;7404210;19;19922;-80
2023/03/17 11:08:37;;;;;;;7.13;2.70;;;12.30;99.90;;;;;;7403975;19;19966;-80
2023/03/17 11:11:10;;;;;;;5.47;2.20;;;12.30;99.90;;;;;;7403748;19;19955;-80
2023/03/17 11:13:39;;;;;;;5.43;2.38;;;12.30;99.90;;;;;;7403209;19;20344;-80
2023/03/17 11:16:17;;;;;;;4.93;2.50;;;12.50;99.90;;;;;;7404444;19;19986;-79
2023/03/17 11:18:49;;;;;;;;;;;12.60;99.90;;;;;;7403829;19;19927;-79
2023/03/17 11:21:23;;;;;;;5.80;2.13;;;12.60;99.90;;;;;;7403015;19;20369;-80
2023/03/17 11:23:53;;;;;;;5.68;2.30;;;12.90;99.90;;;;;;7402215;19;19939;-80
2023/03/17 11:26:44;;;;;;;4.40;2.78;;;12.90;99.90;;;;;;7404043;19;20272;-80
2023/03/17 11:29:27;;;;;;;3.60;2.08;;;13.10;99.90;;;;;;7402841;19;19939;-80
2023/03/17 11:32:02;;;;;;;3.67;2.42;;;13.10;99.90;;;;;;7403626;19;20229;-78
2023/03/17 11:34:50;;;;;;;6.22;2.60;;;13.20;99.90;;;;;;7404063;19;19925;-78
2023/03/17 11:37:31;;;;;;;6.60;2.72;;;13.00;99.90;;;;;;7401533;19;19924;-78
2023/03/17 11:40:08;;;;;;;5.45;2.53;;;12.90;99.90;;;;;;7402894;19;19922;-79
2023/03/17 11:42:45;;;;;;;7.97;2.78;;;12.90;99.90;;;;;;7403666;19;19947;-78
2023/03/17 11:45:24;;;;;;;6.18;2.80;;;12.90;99.90;;;;;;7402763;19;20375;-79
2023/03/17 11:48:23;;;;;;;6.13;3.05;;;12.60;99.90;;;;;;7402804;19;19925;-79
2023/03/17 11:51:01;;;;;;;5.32;2.58;;;12.70;99.90;;;;;;7402737;19;19929;-79
2023/03/17 11:53:47;;;;;;;5.32;2.70;;;12.80;99.90;;;;;;7403124;19;19929;-79
2023/03/17 11:56:20;;;;;;;5.60;2.25;;;12.90;99.90;;;;;;7407549;19;19923;-75
2023/03/17 11:58:55;;;;;;;5.68;2.83;;;12.80;99.90;;;;;;7404139;19;19922;-74
2023/03/17 12:01:31;;;;;;;6.03;2.83;;;12.90;99.90;;;;;;7389189;19;19918;-76
2023/03/17 12:04:10;;;;;;;5.00;3.30;;;13.00;99.90;;;;;;7401956;19;20286;-80
2023/03/17 12:06:49;;;;;;;7.05;3.17;;;13.20;99.90;;;;;;7403921;19;20636;-78
2023/03/17 12:09:28;;;;;;;6.30;2.63;;;13.50;99.90;;;;;;7405532;19;19915;-80
2023/03/17 12:11:58;;;;;;;6.22;4.28;;;13.50;99.90;;;;;;7402994;19;20297;-79
2023/03/17 12:14:31;;;;;;;5.60;2.70;;;13.60;99.90;;;;;;7408670;19;19943;-78
2023/03/17 12:17:08;;;;;;;6.45;3.13;;;13.80;99.90;;;;;;7410123;19;19930;-77
2023/03/17 12:19:43;;;;;;;6.68;3.03;;;13.90;99.90;;;;;;7420848;19;19922;-77
2023/03/17 12:22:25;;;;;;;6.47;2.67;;;14.00;99.90;;;;;;7416373;19;20325;-73
2023/03/17 12:25:06;;;;;;;6.38;2.70;;;14.30;99.90;;;;;;7413879;19;19923;-75
2023/03/17 12:27:42;;;;;;;6.88;2.92;;;14.30;99.90;;;;;;7408517;19;19922;-73
2023/03/17 12:30:24;;;;;;;6.15;2.97;;;14.20;99.90;;;;;;7406041;19;19919;-74
2023/03/17 12:33:02;;;;;;;4.70;2.50;;;14.50;99.90;;;;;;7401995;19;19975;-75
2023/03/17 12:35:33;;;;;;;7.57;3.72;;;14.70;99.90;;;;;;7400673;19;19978;-75
2023/03/17 12:38:10;;;;;;;8.93;3.25;;;14.50;99.90;;;;;;7404374;19;19918;-76
2023/03/17 12:40:57;;;;;;;9.65;3.83;;;14.70;99.90;;;;;;7400477;19;20259;-76
2023/03/17 12:43:42;;;;;;;7.18;3.78;;;14.70;99.90;;;;;;7399124;19;20274;-75
2023/03/17 12:46:37;;;;;;;5.97;2.90;;;14.80;99.90;;;;;;7401882;19;19919;-76
2023/03/17 12:49:31;;;;;;;7.60;3.40;;;14.90;99.90;;;;;;7400671;19;19917;-76
2023/03/17 12:52:11;;;;;;;6.25;3.20;;;15.00;99.90;;;;;;7402662;19;20753;-76
2023/03/17 12:54:47;;;;;;;5.70;3.30;;;14.90;99.90;;;;;;7403413;19;19919;-78
2023/03/17 12:57:21;;;;;;;8.48;4.50;;;14.70;99.90;;;;;;7401274;19;19923;-76
2023/03/17 12:59:58;;;;;;;7.30;3.50;;;14.60;99.90;;;;;;7401092;19;19926;-76
2023/03/17 13:02:38;;;;;;;8.82;4.00;;;14.60;99.90;;;;;;7401196;19;19935;-76
2023/03/17 13:05:10;;;;;;;6.90;4.28;;;14.60;99.90;;;;;;7399909;19;19919;-76
2023/03/17 13:07:43;;;;;;;8.48;3.88;;;14.70;99.90;;;;;;7401802;19;19928;-76
2023/03/17 13:10:38;;;;;;;7.63;3.85;;;14.60;99.90;;;;;;7399610;19;20266;-75
2023/03/17 13:13:24;;;;;;;6.70;4.20;;;14.60;99.90;;;;;;7399054;19;19919;-76
2023/03/17 13:16:01;;;;;;;5.45;3.17;;;14.60;99.90;;;;;;7398684;19;19919;-78
2023/03/17 13:19:08;;;;;;;8.57;4.38;;;14.50;99.90;;;;;;7399980;19;20293;-76
2023/03/17 13:21:37;;;;;;;7.13;3.67;;;14.50;99.90;;;;;;7402293;19;19927;-76
2023/03/17 13:24:39;;;;;;;5.72;3.47;;;14.40;99.90;;;;;;7398968;19;20372;-76